MyTimes logo

TIMES

Webb Imagery

30/01/2010
Channel Challenge
550m Swim / 2.0km Run - Local Residents

(Click on competitor name to view personalised results)

Name
Race #
Category
Time
(h:mm:ss)
Avg Speed
km/hr
OAll
Place
Cat
Place
ROWE Mark#53Local Senior Male0:12:08"12.6 " 1 1
GUILLE Tim#1Local Senior Male0:12:45"12.0 " 2 2
PLANT Luke#146Local Senior Male0:12:52"11.9 " 3 3
BENNETT James#760Local Junior Male0:13:12"11.6 " 4 1
FLEISNER Rob#678Local Male 50+0:13:16"11.5 " 5 1
TILEY Justin#273Local Senior Male0:13:41"11.2 " 6 4
READ Andrew#610Local Junior Male0:13:45"11.1 " 7 2
BILL Greg#754Local Male 40-490:13:46"11.1 " 8 1
JUDD Alex#604Local Junior Male0:13:52"11.0 " 9 3
ROLLAND Thierry#752Local Male 40-490:14:01"10.9 " 10 2
BUTT Chloe#361Local Senior Female0:14:02"10.9 " 11 1
CORBETT Jim#645Local Male 40-490:14:02"10.9 " 12 3
SULLIVAN Matt#607Local Junior Male0:14:17"10.7 " 13 4
YUSKO Bill#692Local Male 50+0:14:18"10.7 " 14 2
BREDIN Victor#54Local Senior Male0:14:22"10.6 " 15 5
EVANS Brad#766Local Male 40-490:14:27"10.6 " 16 4
RINGROSE Glyndon#265Local Senior Male0:14:46"10.4 " 17 6
HUGHES Jed#12Local Senior Male0:14:47"10.3 " 18 7
AGHEAD Bevin#774Local Junior Male0:14:50"10.3 " 19 5
HADLEY Alister#741Local Junior Male0:14:56"10.2 " 20 6
WATSON Russell#716Local Male 40-490:15:03"10.2 " 21 5
HOMER Ivan#647Local Male 40-490:15:11"10.1 " 22 6
BOND Marcus#67Local Senior Male0:15:17"10.0 " 23 8
GOUGH Charlee#340Local Junior Female0:15:26"9.9 " 24 1
DAVIE Krystal#347Local Junior Female0:15:36"9.8 " 25 2
CHISHOLM Andy#649Local Male 40-490:15:43"9.7 " 26 7
BAYLEY Matthew#139Local Senior Male0:15:47"9.7 " 27 9
MILLER Todd#257Local Senior Male0:15:50"9.7 " 28 10
RIELLY Debbie#453Local Female 40-490:15:54"9.6 " 29 1
MATTHEWS Jack#43Local Senior Male0:16:02"9.5 " 30 11
HARRISON Hamish#219Local Senior Male0:16:04"9.5 " 31 12
ALDERSON Allan#736Local Male 50+0:16:07"9.5 " 32 3
DAVIE Angie#317Local Female 40-490:16:09"9.5 " 33 2
PETERSEN Marnie#342Local Junior Female0:16:11"9.5 " 34 3
HARRIS Michelle#496Local Senior Female0:16:12"9.4 " 35 2
JUDD Gary#665Local Male 50+0:16:14"9.4 " 36 4
DALLINGER Chris#271Local Senior Male0:16:15"9.4 " 37 13
MCFEE Andy#70Local Senior Male0:16:15"9.4 " 38 14
VESSEY Glenn#635Local Male 40-490:16:16"9.4 " 39 8
BRADEN Michael#695Local Male 40-490:16:21"9.4 " 40 9
O'DONOHUE Jacob#609Local Junior Male0:16:23"9.3 " 41 7
HOMER Jack#608Local Junior Male0:16:28"9.3 " 42 8
MCCARROLL Matt#638Local Male 40-490:16:33"9.2 " 43 10
MILLER Michael#641Local Male 40-490:16:34"9.2 " 44 11
BURT Melissa#476Local Senior Female0:16:35"9.2 " 45 3
DYKES Chris#26Local Senior Male0:16:44"9.1 " 46 15
MATTHEWS Aaron#123Local Senior Male0:16:51"9.1 " 47 16
CROWE Susie#483Local Senior Female0:16:53"9.1 " 48 4
DAFF Geoff#761Local Male 40-490:16:54"9.1 " 49 12
DAVIE Jasmine#346Local Junior Female0:17:10"8.9 " 50 4
SMITH James#142Local Senior Male0:17:14"8.9 " 51 17
KAYE-HELMOT Georgia#449Local Junior Female0:17:14"8.9 " 52 5
TURNER Peter#677Local Male 50+0:17:16"8.9 " 53 5
LUCK Jarrod#64Local Senior Male0:17:21"8.8 " 54 18
HINGST Andrew#172Local Senior Male0:17:25"8.8 " 55 19
WILSON David#78Local Senior Male0:17:26"8.8 " 56 20
MARSHALL Luke#164Local Senior Male0:17:27"8.8 " 57 21
O'DONOHUE Mark#648Local Male 40-490:17:36"8.7 " 58 13
DENNIS Benjamin#140Local Senior Male0:17:38"8.7 " 59 22
RASMUSSEN Luke#124Local Senior Male0:17:39"8.7 " 60 23
CAMERON Jane#309Local Female 40-490:17:46"8.6 " 61 3
MILLER Kate#397Local Senior Female0:17:53"8.6 " 62 5
MANNING Simon#636Local Male 40-490:17:59"8.5 " 63 14
HARRIS Simon#230Local Senior Male0:18:00"8.5 " 64 24
BELL Ashlea#344Local Junior Female0:18:02"8.5 " 65 6
FISHER Kevin#729Local Male 40-490:18:03"8.5 " 66 15
DUKES Jarrod#266Local Senior Male0:18:05"8.5 " 67 25
BAXTER Virginia#322Local Female 40-490:18:07"8.4 " 68 4
MCDADE Louise#301Local Female 40-490:18:10"8.4 " 69 5
HOMER Fritzie#320Local Female 40-490:18:15"8.4 " 70 6
BURT Ainslee#475Local Senior Female0:18:17"8.4 " 71 6
SZFITLI Justine#484Local Senior Female0:18:18"8.4 " 72 7
FLEISNER Paul#671Local Male 50+0:18:20"8.3 " 73 6
MC COY Tony#719Local Male 50+0:18:21"8.3 " 74 7
MATTHEWS Robert#778Local Male 50+0:18:22"8.3 " 75 8
BAILEY Annie#327Local Female 50+0:18:30"8.3 " 76 1
MOSELEY Tessa#365Local Senior Female0:18:31"8.3 " 77 8
PARKER Gavin#268Local Senior Male0:18:33"8.2 " 78 26
STAFFORD Rachel#448Local Senior Female0:18:34"8.2 " 79 9
SANTURINI Jarred#234Local Senior Male0:18:45"8.2 " 80 27
CASTWOOD Tim#144Local Senior Male0:18:50"8.1 " 81 28
TURNER Bridget#447Local Junior Female0:18:56"8.1 " 82 7
TAMBURO Alysia#485Local Senior Female0:18:58"8.1 " 83 10
SUMMERFIELD Ben#197Local Senior Male0:18:59"8.1 " 84 29
HIBBLE Jenny#332Local Female 50+0:18:59"8.1 " 85 2
PETERSON Scott#224Local Senior Male0:19:01"8.0 " 86 30
ADAMS Simon#713Local Male 40-490:19:01"8.0 " 87 16
CHASTON Peter#668Local Male 50+0:19:03"8.0 " 88 9
TYRELL Sarah#444Local Senior Female0:19:04"8.0 " 89 11
LENNE Heath#20Local Senior Male0:19:05"8.0 " 90 31
COLE Nick#711Local Male 40-490:19:07"8.0 " 91 17
SUNDERLAND Peter#717Local Male 50+0:19:11"8.0 " 92 10
SCOTI Beth#517Local Junior Female0:19:15"7.9 " 93 8
MANNING John#152Local Senior Male0:19:19"7.9 " 94 32
HARBINSON Yvette#451Local Senior Female0:19:21"7.9 " 95 12
STELZER Hermann#697Local Male 50+0:19:26"7.9 " 96 11
DAVIE Stacey#456Local Senior Female0:19:27"7.9 " 97 13
DAFF Jess#419Local Senior Female0:19:28"7.9 " 98 14
CLARK Bruce#624Local Male 40-490:19:30"7.8 " 99 18
MORRISON Kerry#336Local Female 50+0:19:38"7.8 " 100 3
COLLISON Natasha#491Local Senior Female0:19:39"7.8 " 101 15
BLUNDELL Adam#208Local Senior Male0:19:42"7.8 " 102 33
TUFF Stephen#88Local Senior Male0:19:44"7.8 " 103 34
ADAMS Abigail#443Local Senior Female0:19:46"7.7 " 104 16
CAIN Gregory#770Local Male 50+0:19:53"7.7 " 105 12
CARTER Dean#681Local Male 50+0:20:03"7.6 " 106 13
PETERSON Clare#493Local Senior Female0:20:11"7.6 " 107 17
BREMNER James#158Local Senior Male0:20:16"7.5 " 108 35
DALLINGER Brian#720Local Male 50+0:20:21"7.5 " 109 14
SMITH Paul#685Local Male 50+0:20:22"7.5 " 110 15
HOPKINS Barry#715Local Male 50+0:20:23"7.5 " 111 16
O'DONOHUE Josie#351Local Junior Female0:20:34"7.4 " 112 9
MARSHALL Sarah#429Local Senior Female0:20:37"7.4 " 113 18
WEBBER Neil#628Local Male 40-490:20:38"7.4 " 114 19
WILLIAMS Peter#723Local Male 40-490:20:39"7.4 " 115 20
GREENHALGH Paul#16Local Senior Male0:20:46"7.4 " 116 36
MANNING Rebecca#461Local Senior Female0:20:46"7.4 " 117 19
MACARTNEY Aimmee#494Local Senior Female0:20:48"7.4 " 118 20
ORR Michele#326Local Female 40-490:20:52"7.3 " 119 7
MC CABE Patrick#186Local Senior Male0:20:53"7.3 " 120 37
ADKINS Sue#304Local Female 40-490:21:15"7.2 " 121 8
CANIL Daniel#145Local Senior Male0:21:17"7.2 " 122 38
DYNON Paul#710Local Male 40-490:21:21"7.2 " 123 21
GRENVILLE Adnrea#488Local Female 40-490:21:27"7.1 " 124 9
VANDERSTAAY Colin#696Local Male 40-490:21:46"7.0 " 125 22
STEPHENS Kristy#501Local Senior Female0:21:48"7.0 " 126 21
CARTER Verena#370Local Senior Female0:21:54"7.0 " 127 22
HOLLINS Jenny#319Local Female 40-490:21:55"7.0 " 128 10
WEBBER Simone#313Local Female 40-490:22:08"6.9 " 129 11
FOOTE Kaitlin#349Local Junior Female0:22:12"6.9 " 130 10
WRIGHT Kate#395Local Senior Female0:22:16"6.9 " 131 23
WING Rebecca#436Local Senior Female0:22:39"6.8 " 132 24
ROBBINS Larissa#406Local Senior Female0:22:41"6.7 " 133 25
KEWMING Robyn#335Local Female 50+0:22:55"6.7 " 134 4
TELIBURN Dieter#700Local Female 50+0:23:01"6.6 " 135 5
WALKER Christine#426Local Female 50+0:23:01"6.6 " 136 6
KUBALE Timothy#132Local Senior Male0:23:18"6.6 " 137 39
ONEIL Emma#435Local Female 40-490:23:55"6.4 " 138 12
HODGESON Sam#709Local Male 40-490:24:21"6.3 " 139 23
ADAMS Murray#694Local Male 50+0:24:25"6.3 " 140 17
JUSTER Ian#637Local Male 40-490:24:27"6.3 " 141 24
WILLIS Eddy#478Local Female 50+0:24:35"6.2 " 142 7
EGAN Holly#425Local Junior Female0:24:45"6.2 " 143 11
REEK George#703Local Male 50+0:25:36"6.0 " 144 18
CAMPBELL Courtney#55Local Senior Male0:26:11"5.8 " 145 40
MC CABE Michael#740Local Male 50+0:26:39"5.7 " 146 19
O'DONOHUE Lesley#324Local Female 40-490:27:12"5.6 " 147 13
BROOMHALL Jenny#305Local Female 40-490:28:17"5.4 " 148 14
MCKAY Lesley#307Local Female 40-490:29:05"5.3 " 149 15
GLOVER Tom#45Local Senior Male0:30:35"5.0 " 150 41